createdAt,value
2018-11-25T00:01:02.676Z,6.25
2018-11-25T00:03:30.062Z,5.37
2018-11-25T00:05:58.348Z,6.20
2018-11-25T00:08:25.734Z,9.27
2018-11-25T00:10:53.139Z,4.87
2018-11-25T00:13:20.556Z,4.72
2018-11-25T00:15:48.035Z,5.80
2018-11-25T00:18:16.378Z,5.82
2018-11-25T00:20:43.777Z,6.70
2018-11-25T00:23:12.010Z,6.45
2018-11-25T00:25:39.412Z,6.55
2018-11-25T00:28:06.839Z,5.15
2018-11-25T00:30:34.411Z,7.80
2018-11-25T00:33:01.802Z,7.05
2018-11-25T00:35:29.234Z,5.35
2018-11-25T00:37:56.650Z,6.82
2018-11-25T00:40:24.063Z,4.50
2018-11-25T00:42:51.463Z,5.25
2018-11-25T00:45:18.914Z,5.05
2018-11-25T00:47:46.289Z,4.62
2018-11-25T00:50:14.616Z,4.62
2018-11-25T00:52:42.016Z,5.43
2018-11-25T00:55:09.411Z,4.87
2018-11-25T00:57:36.814Z,4.57
2018-11-25T01:00:04.514Z,3.42
2018-11-25T01:02:32.097Z,5.45
2018-11-25T01:04:59.497Z,4.68
2018-11-25T01:07:26.951Z,4.78
2018-11-25T01:09:54.404Z,8.40
2018-11-25T01:12:21.815Z,4.80
2018-11-25T01:14:49.216Z,3.50
2018-11-25T01:17:16.638Z,5.32
2018-11-25T01:19:44.028Z,3.83
2018-11-25T01:22:11.632Z,4.25
2018-11-25T01:24:39.042Z,4.35
2018-11-25T01:27:06.502Z,5.00
2018-11-25T01:29:34.026Z,6.07
2018-11-25T01:32:01.402Z,5.15
2018-11-25T01:34:28.838Z,6.20
2018-11-25T01:36:56.270Z,6.32
2018-11-25T01:39:23.750Z,6.15
2018-11-25T01:41:51.141Z,5.18
2018-11-25T01:44:18.546Z,4.85
2018-11-25T01:46:45.945Z,5.45
2018-11-25T01:49:13.425Z,6.12
2018-11-25T01:51:40.854Z,5.15
2018-11-25T01:54:08.305Z,4.72
2018-11-25T01:56:35.738Z,6.07
2018-11-25T01:59:03.117Z,4.72
2018-11-25T02:01:30.536Z,5.18
2018-11-25T02:03:57.918Z,6.30
2018-11-25T02:06:25.327Z,4.15
2018-11-25T02:08:52.729Z,5.53
2018-11-25T02:11:20.141Z,4.60
2018-11-25T02:13:47.542Z,5.60
2018-11-25T02:16:14.935Z,4.37
2018-11-25T02:18:42.345Z,5.12
2018-11-25T02:21:09.804Z,4.37
2018-11-25T02:23:37.213Z,6.00
2018-11-25T02:26:05.489Z,5.37
2018-11-25T02:28:32.899Z,5.22
2018-11-25T02:31:00.340Z,5.47
2018-11-25T02:33:27.811Z,4.22
2018-11-25T02:35:55.261Z,3.95
2018-11-25T02:40:56.498Z,5.40
2018-11-25T02:43:23.909Z,4.80
2018-11-25T02:45:51.366Z,6.30
2018-11-25T02:48:18.774Z,4.30
2018-11-25T02:50:46.230Z,4.90
2018-11-25T02:53:13.650Z,5.57
2018-11-25T02:55:41.053Z,4.72
2018-11-25T02:58:08.451Z,6.00
2018-11-25T03:00:35.863Z,4.07
2018-11-25T03:03:03.256Z,4.90
2018-11-25T03:05:30.661Z,4.37
2018-11-25T03:07:58.044Z,5.87
2018-11-25T03:10:25.449Z,6.15
2018-11-25T03:12:52.862Z,5.40
2018-11-25T03:15:20.272Z,5.35
2018-11-25T03:17:47.693Z,5.85
2018-11-25T03:20:15.148Z,4.15
2018-11-25T03:22:42.674Z,6.05
2018-11-25T03:25:10.099Z,5.97
2018-11-25T03:27:37.591Z,6.20
2018-11-25T03:30:05.822Z,5.00
2018-11-25T03:32:33.272Z,5.47
2018-11-25T03:35:00.662Z,5.03
2018-11-25T03:37:28.087Z,6.90
2018-11-25T03:39:55.510Z,5.10
2018-11-25T03:42:22.910Z,5.40
2018-11-25T03:44:50.322Z,6.47
2018-11-25T03:47:17.726Z,6.87
2018-11-25T03:49:45.122Z,5.37
2018-11-25T03:52:12.531Z,5.85
2018-11-25T03:54:39.962Z,6.55
2018-11-25T03:57:07.372Z,6.97
2018-11-25T03:59:34.773Z,6.15
2018-11-25T04:02:02.222Z,6.70
2018-11-25T04:04:29.704Z,6.43
2018-11-25T04:06:57.101Z,8.27
2018-11-25T04:09:25.251Z,9.05
2018-11-25T04:11:52.851Z,9.10
2018-11-25T04:14:20.412Z,9.52
2018-11-25T04:16:47.810Z,7.43
2018-11-25T04:19:15.201Z,8.10
2018-11-25T04:21:42.645Z,9.38
2018-11-25T04:24:10.049Z,9.95
2018-11-25T04:26:37.468Z,11.02
2018-11-25T04:29:04.905Z,11.05
2018-11-25T04:31:32.305Z,10.48
2018-11-25T04:33:59.710Z,10.35
2018-11-25T04:36:27.764Z,9.77
2018-11-25T04:38:55.160Z,9.43
2018-11-25T04:41:22.582Z,8.45
2018-11-25T04:43:50.003Z,9.40
2018-11-25T04:46:17.433Z,9.52
2018-11-25T04:48:45.479Z,9.52
2018-11-25T04:51:12.894Z,10.02
2018-11-25T04:53:40.337Z,11.02
2018-11-25T04:56:07.764Z,10.15
2018-11-25T04:58:35.168Z,10.40
2018-11-25T05:01:02.668Z,11.85
2018-11-25T05:03:30.107Z,11.12
2018-11-25T05:05:57.505Z,8.63
2018-11-25T05:08:24.920Z,9.35
2018-11-25T05:10:52.462Z,7.62
2018-11-25T05:13:19.866Z,5.28
2018-11-25T05:15:47.566Z,7.43
2018-11-25T05:18:14.971Z,4.32
2018-11-25T05:20:42.386Z,5.65
2018-11-25T05:23:10.000Z,5.35
2018-11-25T05:25:37.421Z,5.50
2018-11-25T05:28:04.884Z,5.50
2018-11-25T05:30:32.303Z,4.55
2018-11-25T05:32:59.701Z,4.07
2018-11-25T05:35:27.106Z,5.03
2018-11-25T05:37:54.511Z,5.00
2018-11-25T05:40:21.924Z,4.32
2018-11-25T05:42:49.365Z,4.30
2018-11-25T05:45:16.788Z,5.10
2018-11-25T05:47:44.191Z,4.28
2018-11-25T05:50:11.587Z,4.85
2018-11-25T05:52:38.980Z,7.28
2018-11-25T05:55:06.389Z,5.60
2018-11-25T05:57:34.601Z,5.15
2018-11-25T06:00:02.026Z,5.37
2018-11-25T06:02:29.441Z,6.15
2018-11-25T06:04:57.419Z,4.70
2018-11-25T06:07:24.827Z,3.03
2018-11-25T06:09:52.246Z,5.72
2018-11-25T06:12:19.633Z,3.60
2018-11-25T06:14:47.154Z,3.90
2018-11-25T06:17:14.550Z,4.75
2018-11-25T06:19:42.071Z,3.70
2018-11-25T06:22:09.475Z,5.18
2018-11-25T06:24:36.970Z,4.65
2018-11-25T06:27:04.378Z,4.32
2018-11-25T06:29:31.777Z,3.65
2018-11-25T06:31:59.177Z,4.62
2018-11-25T06:34:26.576Z,5.20
2018-11-25T06:36:54.079Z,4.85
2018-11-25T06:39:21.471Z,5.28
2018-11-25T06:41:48.875Z,5.50
2018-11-25T06:44:16.333Z,4.50
2018-11-25T06:46:44.482Z,5.37
2018-11-25T06:49:12.006Z,3.72
2018-11-25T06:51:39.436Z,6.25
2018-11-25T06:54:06.836Z,5.87
2018-11-25T06:56:34.245Z,4.18
2018-11-25T06:59:01.647Z,5.68
2018-11-25T07:01:29.066Z,4.43
2018-11-25T07:03:56.467Z,5.35
2018-11-25T07:06:23.868Z,4.60
2018-11-25T07:08:51.272Z,5.53
2018-11-25T07:11:18.662Z,4.68
2018-11-25T07:13:46.091Z,4.22
2018-11-25T07:16:13.854Z,5.05
2018-11-25T07:18:41.312Z,4.25
2018-11-25T07:21:08.721Z,4.50
2018-11-25T07:23:36.220Z,4.40
2018-11-25T07:26:03.682Z,4.47
2018-11-25T07:28:31.093Z,4.47
2018-11-25T07:30:58.513Z,6.05
2018-11-25T07:33:25.926Z,5.60
2018-11-25T07:35:53.330Z,4.50
2018-11-25T07:38:20.737Z,5.30
2018-11-25T07:40:48.139Z,4.47
2018-11-25T07:43:15.557Z,5.28
2018-11-25T07:45:43.057Z,4.60
2018-11-25T07:48:10.451Z,4.40
2018-11-25T07:50:37.862Z,4.90
2018-11-25T07:53:05.274Z,3.97
2018-11-25T07:55:32.687Z,4.47
2018-11-25T07:58:00.094Z,5.43
2018-11-25T08:00:27.521Z,5.30
2018-11-25T08:02:55.406Z,5.35
2018-11-25T08:05:22.875Z,4.20
2018-11-25T08:07:50.309Z,4.70
2018-11-25T08:10:17.743Z,4.37
2018-11-25T08:12:45.314Z,5.30
2018-11-25T08:15:12.710Z,4.30
2018-11-25T08:17:40.114Z,4.45
2018-11-25T08:20:07.518Z,10.95
2018-11-25T08:22:34.926Z,5.43
2018-11-25T08:25:02.327Z,4.05
2018-11-25T08:27:29.718Z,5.32
2018-11-25T08:29:57.112Z,5.20
2018-11-25T08:32:24.857Z,3.90
2018-11-25T08:34:52.248Z,5.95
2018-11-25T08:37:20.003Z,7.37
2018-11-25T08:39:47.427Z,6.53
2018-11-25T08:42:15.491Z,7.07
2018-11-25T08:44:42.906Z,4.72
2018-11-25T08:47:10.313Z,4.10
2018-11-25T08:49:37.717Z,5.03
2018-11-25T08:52:05.158Z,6.22
2018-11-25T08:54:32.553Z,6.43
2018-11-25T08:56:59.969Z,4.25
2018-11-25T08:59:28.242Z,4.90
2018-11-25T09:01:55.638Z,5.25
2018-11-25T09:04:23.081Z,5.28
2018-11-25T09:06:51.034Z,5.78
2018-11-25T09:09:18.446Z,5.87
2018-11-25T09:11:45.863Z,7.70
2018-11-25T09:14:13.264Z,8.32
2018-11-25T09:16:40.673Z,7.18
2018-11-25T09:19:08.129Z,6.87
2018-11-25T09:21:35.558Z,7.35
2018-11-25T09:24:03.014Z,7.37
2018-11-25T09:26:30.442Z,14.87
2018-11-25T09:28:57.865Z,7.00
2018-11-25T09:31:25.435Z,6.03
2018-11-25T09:33:53.069Z,6.87
2018-11-25T09:36:20.470Z,9.75
2018-11-25T09:38:47.881Z,6.68
2018-11-25T09:41:15.365Z,7.15
2018-11-25T09:43:42.766Z,8.00
2018-11-25T09:46:10.328Z,7.50
2018-11-25T09:48:37.797Z,7.03
2018-11-25T09:51:05.189Z,7.50
2018-11-25T09:53:32.597Z,8.40
2018-11-25T09:55:59.994Z,7.55
2018-11-25T09:58:27.406Z,7.03
2018-11-25T10:00:54.884Z,7.95
2018-11-25T10:03:22.309Z,8.35
2018-11-25T10:05:49.702Z,7.28
2018-11-25T10:08:17.100Z,7.07
2018-11-25T10:10:44.502Z,7.82
2018-11-25T10:13:11.933Z,7.47
2018-11-25T10:15:39.419Z,9.57
2018-11-25T10:18:06.820Z,9.52
2018-11-25T10:20:34.243Z,9.52
2018-11-25T10:23:01.648Z,10.00
2018-11-25T10:25:29.048Z,8.65
2018-11-25T10:27:56.451Z,9.50
2018-11-25T10:30:23.859Z,13.43
2018-11-25T10:32:51.251Z,7.35
2018-11-25T10:35:18.713Z,7.72
2018-11-25T10:37:46.133Z,8.20
2018-11-25T10:40:13.552Z,7.28
2018-11-25T10:42:40.969Z,6.82
2018-11-25T10:45:08.478Z,8.10
2018-11-25T10:47:35.891Z,6.78
2018-11-25T10:50:03.388Z,6.85
2018-11-25T10:52:30.800Z,10.63
2018-11-25T10:54:58.256Z,7.28
2018-11-25T10:57:25.879Z,7.03
2018-11-25T10:59:53.444Z,7.75
2018-11-25T11:02:21.011Z,7.07
2018-11-25T11:04:48.446Z,7.05
2018-11-25T11:07:26.691Z,9.30
2018-11-25T11:09:54.115Z,6.95
2018-11-25T11:12:21.522Z,7.62
2018-11-25T11:14:48.927Z,9.38
2018-11-25T11:17:16.328Z,8.55
2018-11-25T11:19:43.758Z,6.95
2018-11-25T11:22:11.181Z,10.75
2018-11-25T11:24:38.584Z,8.35
2018-11-25T11:27:05.999Z,9.48
2018-11-25T11:29:33.997Z,9.75
2018-11-25T11:32:01.493Z,8.30
2018-11-25T11:34:29.010Z,10.20
2018-11-25T11:36:56.467Z,9.20
2018-11-25T11:39:23.903Z,8.00
2018-11-25T11:41:51.521Z,8.02
2018-11-25T11:44:18.949Z,8.18
2018-11-25T11:46:46.363Z,7.72
2018-11-25T11:49:13.808Z,7.90
2018-11-25T11:51:41.217Z,8.20
2018-11-25T11:54:08.649Z,9.23
2018-11-25T11:56:40.244Z,9.90
2018-11-25T11:59:03.486Z,8.75
2018-11-25T12:01:30.940Z,8.25
2018-11-25T12:03:58.359Z,8.32
2018-11-25T12:06:25.778Z,8.98
2018-11-25T12:08:53.280Z,8.38
2018-11-25T12:11:20.737Z,11.70
2018-11-25T12:13:48.173Z,10.18
2018-11-25T12:16:15.628Z,8.30
2018-11-25T12:18:43.143Z,9.27
2018-11-25T12:21:10.543Z,9.15
2018-11-25T12:23:37.958Z,11.12
2018-11-25T12:26:05.375Z,6.90
2018-11-25T12:28:32.827Z,9.55
2018-11-25T12:31:00.322Z,9.45
2018-11-25T12:33:27.726Z,8.63
2018-11-25T12:35:55.180Z,8.80
2018-11-25T12:38:22.606Z,10.57
2018-11-25T12:40:50.498Z,7.82
2018-11-25T12:43:17.909Z,8.43
2018-11-25T12:45:45.322Z,9.23
2018-11-25T12:48:13.691Z,7.75
2018-11-25T12:50:41.317Z,8.15
2018-11-25T12:53:08.719Z,9.63
2018-11-25T12:55:36.180Z,8.30
2018-11-25T12:58:04.773Z,10.00
2018-11-25T13:00:32.174Z,9.98
2018-11-25T13:02:59.621Z,8.80
2018-11-25T13:05:28.129Z,7.35
2018-11-25T13:07:55.582Z,7.78
2018-11-25T13:10:22.966Z,6.87
2018-11-25T13:12:50.435Z,6.65
2018-11-25T13:15:17.849Z,9.05
2018-11-25T13:17:45.325Z,7.00
2018-11-25T13:20:13.482Z,7.72
2018-11-25T13:22:41.074Z,6.82
2018-11-25T13:25:08.553Z,7.50
2018-11-25T13:27:36.346Z,8.50
2018-11-25T13:30:03.742Z,6.93
2018-11-25T13:32:31.197Z,7.03
2018-11-25T13:34:58.682Z,7.95
2018-11-25T13:37:26.093Z,6.30
2018-11-25T13:39:53.542Z,8.52
2018-11-25T13:42:20.945Z,7.80
2018-11-25T13:44:48.042Z,5.95
2018-11-25T13:47:15.428Z,7.00
2018-11-25T13:49:42.870Z,8.25
2018-11-25T13:52:10.323Z,7.40
2018-11-25T13:54:37.771Z,7.28
2018-11-25T13:57:05.217Z,8.70
2018-11-25T13:59:32.606Z,8.85
2018-11-25T14:02:00.041Z,11.07
2018-11-25T14:04:27.457Z,7.32
2018-11-25T14:06:54.878Z,8.90
2018-11-25T14:09:22.300Z,10.70
2018-11-25T14:11:49.712Z,9.63
2018-11-25T14:14:17.320Z,8.85
2018-11-25T14:16:44.821Z,10.40
2018-11-25T14:19:12.229Z,8.90
2018-11-25T14:21:39.640Z,8.15
2018-11-25T14:24:07.057Z,9.55
2018-11-25T14:26:34.496Z,8.30
2018-11-25T14:29:01.954Z,9.07
2018-11-25T14:31:29.458Z,10.48
2018-11-25T14:33:56.871Z,11.07
2018-11-25T14:36:24.277Z,8.63
2018-11-25T14:38:51.683Z,8.35
2018-11-25T14:41:19.078Z,7.85
2018-11-25T14:43:46.508Z,9.05
2018-11-25T14:46:14.688Z,7.18
2018-11-25T14:48:42.081Z,8.63
2018-11-25T14:51:09.565Z,8.63
2018-11-25T14:53:36.969Z,10.40
2018-11-25T14:56:04.424Z,9.10
2018-11-25T14:58:31.946Z,7.62
2018-11-25T15:00:59.357Z,8.38
2018-11-25T15:03:26.885Z,9.20
2018-11-25T15:05:55.562Z,7.35
2018-11-25T15:08:22.971Z,8.73
2018-11-25T15:10:51.131Z,9.68
2018-11-25T15:13:18.546Z,8.05
2018-11-25T15:15:46.251Z,11.27
2018-11-25T15:18:13.831Z,10.02
2018-11-25T15:20:41.336Z,8.88
2018-11-25T15:23:08.724Z,8.23
2018-11-25T15:25:36.147Z,7.78
2018-11-25T15:28:03.571Z,10.90
2018-11-25T15:30:31.052Z,8.60
2018-11-25T15:32:59.515Z,7.90
2018-11-25T15:35:26.981Z,9.07
2018-11-25T15:37:54.460Z,9.88
2018-11-25T15:40:22.361Z,7.80
2018-11-25T15:42:49.951Z,6.90
2018-11-25T15:45:17.360Z,9.32
2018-11-25T15:47:44.853Z,10.57
2018-11-25T15:50:12.273Z,9.18
2018-11-25T15:52:39.675Z,9.57
2018-11-25T15:55:07.289Z,9.35
2018-11-25T15:57:34.770Z,8.38
2018-11-25T16:00:02.325Z,9.27
2018-11-25T16:02:29.851Z,10.82
2018-11-25T16:04:57.651Z,8.80
2018-11-25T16:07:25.177Z,10.55
2018-11-25T16:09:52.614Z,8.38
2018-11-25T16:12:20.043Z,11.18
2018-11-25T16:14:47.499Z,9.88
2018-11-25T16:17:14.944Z,8.60
2018-11-25T16:19:42.348Z,9.18
2018-11-25T16:22:09.933Z,6.72
2018-11-25T16:24:39.152Z,9.80
2018-11-25T16:27:06.581Z,8.90
2018-11-25T16:29:34.049Z,10.70
2018-11-25T16:32:01.568Z,8.98
2018-11-25T16:34:28.967Z,10.75
2018-11-25T16:36:56.510Z,9.93
2018-11-25T16:39:23.919Z,8.02
2018-11-25T16:41:51.518Z,7.07
2018-11-25T16:44:18.916Z,8.68
2018-11-25T16:46:46.452Z,7.85
2018-11-25T16:49:13.871Z,7.78
2018-11-25T16:51:41.430Z,7.57
2018-11-25T16:54:08.810Z,8.52
2018-11-25T16:56:36.261Z,7.25
2018-11-25T16:59:03.659Z,7.32
2018-11-25T17:01:31.202Z,7.78
2018-11-25T17:03:59.298Z,7.28
2018-11-25T17:06:26.721Z,9.15
2018-11-25T17:08:54.168Z,7.22
2018-11-25T17:11:21.650Z,5.90
2018-11-25T17:13:49.320Z,6.85
2018-11-25T17:16:16.751Z,6.55
2018-11-25T17:18:44.281Z,6.85
2018-11-25T17:21:11.808Z,7.95
2018-11-25T17:23:39.239Z,7.57
2018-11-25T17:26:06.681Z,8.48
2018-11-25T17:28:34.130Z,9.77
2018-11-25T17:31:01.514Z,10.63
2018-11-25T17:33:28.938Z,10.00
2018-11-25T17:35:56.420Z,10.07
2018-11-25T17:38:24.962Z,10.80
2018-11-25T17:40:51.636Z,9.93
2018-11-25T17:43:19.064Z,9.75
2018-11-25T17:45:46.549Z,9.55
2018-11-25T17:48:14.013Z,10.30
2018-11-25T17:50:41.428Z,9.68
2018-11-25T17:53:08.918Z,11.45
2018-11-25T17:55:37.655Z,10.32
2018-11-25T17:58:05.371Z,10.70
2018-11-25T18:00:32.759Z,11.23
2018-11-25T18:03:00.182Z,11.98
2018-11-25T18:05:27.596Z,10.93
2018-11-25T18:07:56.158Z,11.73
2018-11-25T18:10:23.591Z,10.30
2018-11-25T18:12:50.999Z,11.52
2018-11-25T18:15:19.040Z,12.45
2018-11-25T18:17:47.498Z,10.68
2018-11-25T18:20:14.977Z,13.18
2018-11-25T18:22:42.407Z,11.85
2018-11-25T18:25:09.815Z,9.85
2018-11-25T18:27:37.227Z,11.18
2018-11-25T18:30:05.569Z,12.35
2018-11-25T18:32:33.206Z,9.80
2018-11-25T18:35:00.915Z,11.27
2018-11-25T18:37:28.424Z,11.93
2018-11-25T18:39:55.838Z,12.50
2018-11-25T18:42:23.291Z,12.20
2018-11-25T18:44:51.136Z,12.15
2018-11-25T18:47:18.634Z,12.15
2018-11-25T18:49:46.092Z,13.00
2018-11-25T18:52:13.958Z,12.55
2018-11-25T18:54:41.344Z,14.20
2018-11-25T18:57:08.874Z,11.02
2018-11-25T18:59:36.273Z,15.98
2018-11-25T19:02:04.830Z,13.38
2018-11-25T19:04:32.242Z,13.25
2018-11-25T19:06:59.935Z,10.55
2018-11-25T19:09:27.439Z,12.20
2018-11-25T19:11:54.914Z,11.63
2018-11-25T19:14:23.010Z,11.27
2018-11-25T19:16:50.425Z,13.60
2018-11-25T19:19:17.812Z,9.93
2018-11-25T19:21:45.314Z,12.05
2018-11-25T19:24:12.720Z,12.93
2018-11-25T19:26:40.803Z,11.70
2018-11-25T19:29:08.310Z,11.77
2018-11-25T19:31:35.714Z,12.57
2018-11-25T19:34:03.988Z,13.25
2018-11-25T19:36:31.460Z,12.18
2018-11-25T19:38:58.879Z,11.93
2018-11-25T19:41:26.299Z,9.52
2018-11-25T19:43:53.997Z,10.77
2018-11-25T19:46:21.484Z,11.93
2018-11-25T19:48:48.921Z,12.32
2018-11-25T19:51:17.702Z,11.70
2018-11-25T19:53:43.787Z,11.70
2018-11-25T19:56:11.195Z,11.57
2018-11-25T19:58:38.654Z,13.25
2018-11-25T20:01:06.057Z,15.07
2018-11-25T20:03:33.578Z,11.32
2018-11-25T20:06:01.066Z,13.07
2018-11-25T20:08:28.673Z,11.65
2018-11-25T20:10:56.258Z,12.15
2018-11-25T20:13:23.677Z,11.85
2018-11-25T20:15:51.089Z,14.38
2018-11-25T20:18:18.512Z,13.20
2018-11-25T20:20:46.014Z,12.00
2018-11-25T20:23:13.420Z,14.25
2018-11-25T20:25:40.867Z,11.95
2018-11-25T20:28:08.265Z,11.60
2018-11-25T20:30:35.703Z,13.32
2018-11-25T20:33:08.691Z,12.05
2018-11-25T20:35:36.098Z,14.45
2018-11-25T20:38:03.503Z,14.55
2018-11-25T20:40:30.985Z,11.40
2018-11-25T20:42:58.378Z,12.55
2018-11-25T20:45:25.825Z,15.40
2018-11-25T20:47:53.222Z,14.52
2018-11-25T20:50:20.625Z,14.93
2018-11-25T20:55:42.271Z,23.60
2018-11-25T20:58:09.676Z,15.13
2018-11-25T21:00:37.179Z,15.07
2018-11-25T21:03:04.654Z,14.82
2018-11-25T21:05:32.105Z,13.05
2018-11-25T21:08:00.344Z,14.35
2018-11-25T21:10:27.816Z,14.87
2018-11-25T21:12:55.218Z,15.60
2018-11-25T21:15:22.624Z,15.48
2018-11-25T21:17:50.087Z,16.60
2018-11-25T21:20:17.659Z,12.05
2018-11-25T21:22:45.167Z,13.65
2018-11-25T21:25:12.769Z,14.00
2018-11-25T21:27:40.254Z,15.40
2018-11-25T21:30:07.837Z,12.02
2018-11-25T21:32:35.342Z,13.68
2018-11-25T21:35:02.798Z,13.98
2018-11-25T21:37:30.268Z,13.80
2018-11-25T21:39:57.714Z,15.13
2018-11-25T21:42:25.155Z,13.68
2018-11-25T21:44:52.623Z,13.05
2018-11-25T21:47:20.059Z,16.08
2018-11-25T21:49:47.658Z,18.58
2018-11-25T21:52:16.581Z,18.17
2018-11-25T21:54:44.370Z,16.50
2018-11-25T21:57:11.954Z,17.40
2018-11-25T21:59:39.367Z,15.85
2018-11-25T22:02:06.773Z,16.33
2018-11-25T22:04:34.241Z,14.80
2018-11-25T22:07:01.660Z,14.43
2018-11-25T22:09:30.064Z,15.30
2018-11-25T22:11:57.503Z,11.18
2018-11-25T22:14:24.975Z,15.20
2018-11-25T22:16:52.398Z,12.20
2018-11-25T22:19:19.779Z,11.77
2018-11-25T22:21:47.255Z,14.20
2018-11-25T22:24:14.706Z,14.48
2018-11-25T22:26:42.337Z,16.48
2018-11-25T22:29:09.761Z,16.62
2018-11-25T22:31:37.247Z,14.07
2018-11-25T22:34:04.693Z,13.65
2018-11-25T22:36:32.074Z,14.82
2018-11-25T22:38:59.713Z,14.25
2018-11-25T22:41:27.170Z,14.87
2018-11-25T22:43:54.564Z,14.23
2018-11-25T22:46:21.968Z,15.50
2018-11-25T22:48:49.408Z,13.60
2018-11-25T22:51:16.815Z,13.82
2018-11-25T22:53:44.230Z,13.35
2018-11-25T22:56:11.939Z,13.38
2018-11-25T22:58:39.411Z,13.82
2018-11-25T23:01:06.826Z,17.10
2018-11-25T23:03:34.230Z,16.45
2018-11-25T23:09:17.748Z,22.73
2018-11-25T23:11:45.207Z,15.00
2018-11-25T23:14:12.676Z,10.75
2018-11-25T23:16:40.093Z,12.52
2018-11-25T23:19:07.610Z,13.32
2018-11-25T23:21:35.037Z,11.80
2018-11-25T23:24:03.594Z,12.68
2018-11-25T23:26:29.961Z,12.43
2018-11-25T23:28:57.478Z,10.50
2018-11-25T23:31:24.998Z,11.18
2018-11-25T23:33:52.788Z,11.63
2018-11-25T23:36:20.204Z,9.20
2018-11-25T23:38:47.671Z,10.68
2018-11-25T23:41:15.126Z,10.15
2018-11-25T23:43:42.536Z,12.88
2018-11-25T23:46:09.940Z,11.57
2018-11-25T23:48:37.374Z,11.45
2018-11-25T23:51:04.789Z,11.77
2018-11-25T23:53:32.219Z,11.68
2018-11-25T23:55:59.612Z,11.38
2018-11-25T23:58:27.013Z,11.10
